Time;durP1;ratioP1;P1;durP2;ratioP2;P2;SDS_P1;SDS_P2;PMS_P1;PMS_P2;Temp;Humidity;BMP_temperature;BMP_pressure;BME280_temperature;BME280_humidity;BME280_pressure;Samples;Min_cycle;Max_cycle;Signal;HPM_P1;HPM_P2
2024/02/05 00:02:48;;;;;;;21.10;4.40;;;10.40;99.90;;;;;;6268094;28;20056;-78
2024/02/05 00:05:50;;;;;;;24.08;4.13;;;10.40;99.90;;;;;;6244117;28;20496;-81
2024/02/05 00:08:51;;;;;;;26.27;4.20;;;10.50;99.90;;;;;;6269118;28;20416;-79
2024/02/05 00:11:53;;;;;;;21.92;4.20;;;10.50;99.90;;;;;;6243664;28;20050;-77
2024/02/05 00:14:55;;;;;;;22.42;3.88;;;10.50;99.90;;;;;;6254378;28;20164;-77
2024/02/05 00:17:56;;;;;;;31.33;4.55;;;10.50;99.90;;;;;;6266084;28;20057;-78
2024/02/05 00:20:58;;;;;;;23.45;4.18;;;10.40;99.90;;;;;;6241241;28;20045;-77
2024/02/05 00:24:00;;;;;;;28.92;4.65;;;10.40;99.90;;;;;;6244437;28;20060;-77
2024/02/05 00:27:02;;;;;;;25.05;4.05;;;10.30;99.90;;;;;;6267470;28;20053;-77
2024/02/05 00:30:04;;;;;;;20.92;4.22;;;10.30;99.90;;;;;;6241936;28;20053;-77
2024/02/05 00:33:05;;;;;;;24.90;4.00;;;10.20;99.90;;;;;;6268765;28;20056;-77
2024/02/05 00:36:07;;;;;;;22.85;4.22;;;10.20;99.90;;;;;;6244305;28;20065;-77
2024/02/05 00:39:10;;;;;;;25.27;4.55;;;10.30;99.90;;;;;;6268416;28;20063;-77
2024/02/05 00:42:11;;;;;;;29.77;4.82;;;10.20;99.90;;;;;;6244151;28;20577;-77
2024/02/05 00:45:13;;;;;;;28.90;5.25;;;10.30;99.90;;;;;;6264220;28;20673;-78
2024/02/05 00:48:15;;;;;;;26.83;4.68;;;10.30;99.90;;;;;;6244470;28;20072;-78
2024/02/05 00:51:16;;;;;;;22.52;4.15;;;10.30;99.90;;;;;;6258159;28;20132;-76
2024/02/05 00:54:18;;;;;;;23.98;4.43;;;10.30;99.90;;;;;;6268064;28;20144;-76
2024/02/05 00:57:20;;;;;;;24.77;4.20;;;10.30;99.90;;;;;;6242792;28;20057;-79
2024/02/05 01:00:23;;;;;;;24.55;4.15;;;10.30;99.90;;;;;;6261556;28;20049;-78
2024/02/05 01:03:25;;;;;;;29.30;4.63;;;10.30;99.90;;;;;;6246132;28;20741;-77
2024/02/05 01:06:26;;;;;;;29.55;4.40;;;10.30;99.90;;;;;;6267850;28;20049;-77
2024/02/05 01:09:29;;;;;;;30.33;4.85;;;10.30;99.90;;;;;;6243997;28;20057;-77
2024/02/05 01:12:30;;;;;;;34.38;5.30;;;10.20;99.90;;;;;;6267193;28;20058;-77
2024/02/05 01:15:32;;;;;;;22.00;4.20;;;10.30;99.90;;;;;;6241078;28;20060;-77
2024/02/05 01:18:34;;;;;;;27.25;4.85;;;10.30;99.90;;;;;;6233787;28;20052;-76
2024/02/05 01:21:35;;;;;;;27.75;4.40;;;10.20;99.90;;;;;;6264928;28;20052;-77
2024/02/05 01:24:37;;;;;;;24.90;4.30;;;10.20;99.90;;;;;;6242074;28;20049;-77
2024/02/05 01:27:39;;;;;;;20.08;3.90;;;10.20;99.90;;;;;;6247660;28;20057;-78
2024/02/05 01:30:43;;;;;;;25.80;4.32;;;10.20;99.90;;;;;;6266198;28;20053;-77
2024/02/05 01:33:45;;;;;;;23.15;4.05;;;10.20;99.90;;;;;;6219285;28;20061;-77
2024/02/05 01:36:46;;;;;;;28.20;4.85;;;10.20;99.90;;;;;;6266979;28;20099;-77
2024/02/05 01:39:48;;;;;;;22.13;4.55;;;10.10;99.90;;;;;;6244394;28;20060;-78
2024/02/05 01:42:50;;;;;;;26.33;4.50;;;10.10;99.90;;;;;;6265188;28;20075;-77
2024/02/05 01:45:52;;;;;;;29.52;5.00;;;10.10;99.90;;;;;;6243311;28;20052;-77
2024/02/05 01:48:54;;;;;;;22.88;5.13;;;10.10;99.90;;;;;;6221843;28;20058;-77
2024/02/05 01:51:56;;;;;;;23.05;4.63;;;10.10;99.90;;;;;;6267194;28;20503;-77
2024/02/05 01:54:57;;;;;;;24.70;4.90;;;10.10;99.90;;;;;;6244056;28;20136;-79
2024/02/05 01:57:59;;;;;;;30.33;4.82;;;10.10;99.90;;;;;;6266614;28;20053;-79
2024/02/05 02:01:01;;;;;;;29.23;5.07;;;10.10;99.90;;;;;;6250517;28;20053;-78
2024/02/05 02:04:02;;;;;;;24.77;4.63;;;10.10;99.90;;;;;;6260102;28;20419;-78
2024/02/05 02:07:04;;;;;;;34.90;5.47;;;10.20;99.90;;;;;;6273613;28;20107;-78
2024/02/05 02:10:06;;;;;;;21.05;4.30;;;10.20;99.90;;;;;;6245450;28;20057;-77
2024/02/05 02:13:08;;;;;;;27.27;4.70;;;10.20;99.90;;;;;;6257838;28;20110;-78
2024/02/05 02:16:10;;;;;;;26.75;4.35;;;10.30;99.90;;;;;;6245155;28;20102;-78
2024/02/05 02:19:12;;;;;;;26.45;4.30;;;10.30;99.90;;;;;;6257335;28;20057;-78
2024/02/05 02:22:13;;;;;;;25.17;5.40;;;10.30;99.90;;;;;;6269932;28;20057;-78
2024/02/05 02:25:15;;;;;;;28.95;4.95;;;10.30;99.90;;;;;;6247727;28;20049;-77
2024/02/05 02:28:17;;;;;;;24.05;4.78;;;10.30;99.90;;;;;;6260708;28;20389;-77
2024/02/05 02:31:19;;;;;;;25.00;4.20;;;10.30;99.90;;;;;;6247528;28;20077;-78
2024/02/05 02:34:20;;;;;;;31.63;5.25;;;10.20;99.90;;;;;;6271242;28;20052;-79
2024/02/05 02:37:22;;;;;;;24.27;4.38;;;10.20;99.90;;;;;;6247177;28;20050;-78
2024/02/05 02:40:24;;;;;;;29.13;4.88;;;10.20;99.90;;;;;;6271083;28;20107;-77
2024/02/05 02:43:26;;;;;;;26.30;4.63;;;10.20;99.90;;;;;;6251274;28;20056;-77
2024/02/05 02:46:28;;;;;;;25.00;4.78;;;10.10;99.90;;;;;;6247143;28;20195;-79
2024/02/05 02:49:30;;;;;;;20.23;4.20;;;10.10;99.90;;;;;;6271071;28;20057;-77
2024/02/05 02:52:32;;;;;;;22.23;4.90;;;10.10;99.90;;;;;;6247107;28;20060;-78
2024/02/05 02:55:34;;;;;;;25.40;4.82;;;10.10;99.90;;;;;;6271104;28;20060;-78
2024/02/05 02:58:35;;;;;;;29.55;4.85;;;10.00;99.90;;;;;;6253307;28;20420;-77
2024/02/05 03:01:37;;;;;;;23.95;4.43;;;10.00;99.90;;;;;;6245303;28;20049;-77
2024/02/05 03:04:39;;;;;;;24.02;4.18;;;10.00;99.90;;;;;;6270717;28;20189;-77
2024/02/05 03:07:41;;;;;;;24.05;4.10;;;9.90;99.90;;;;;;6246416;28;20130;-78
2024/02/05 03:10:42;;;;;;;23.27;4.28;;;9.80;99.90;;;;;;6269029;28;20800;-78
2024/02/05 03:13:44;;;;;;;25.88;5.03;;;9.80;99.90;;;;;;6254153;28;20053;-78
2024/02/05 03:16:46;;;;;;;20.40;5.07;;;9.80;99.90;;;;;;6246525;28;20420;-78
2024/02/05 03:19:47;;;;;;;27.73;4.43;;;9.80;99.90;;;;;;6243804;28;20424;-77
2024/02/05 03:22:49;;;;;;;22.02;4.75;;;9.80;99.90;;;;;;6268861;28;20057;-77
2024/02/05 03:26:06;;;;;;;31.95;4.70;;;9.80;99.90;;;;;;6231368;28;20159;-78
2024/02/05 03:29:07;;;;;;;33.78;4.88;;;9.70;99.90;;;;;;6262244;28;20067;-78
2024/02/05 03:32:09;;;;;;;31.35;4.65;;;9.70;99.90;;;;;;6246227;28;20057;-78
2024/02/05 03:35:12;;;;;;;23.80;4.72;;;9.70;99.90;;;;;;6267490;28;20045;-78
2024/02/05 03:38:14;;;;;;;25.58;4.75;;;9.60;99.90;;;;;;6247790;28;20045;-78
2024/02/05 03:41:15;;;;;;;25.70;4.38;;;9.60;99.90;;;;;;6269666;28;20045;-79
2024/02/05 03:44:17;;;;;;;28.73;5.03;;;9.60;99.90;;;;;;6259240;28;20048;-78
2024/02/05 03:47:18;;;;;;;30.77;5.22;;;9.60;99.90;;;;;;6245772;28;20134;-79
2024/02/05 03:50:20;;;;;;;24.30;4.72;;;9.60;99.90;;;;;;6268091;28;20045;-79
2024/02/05 03:53:22;;;;;;;28.02;5.10;;;9.50;99.90;;;;;;6244657;28;20142;-79
2024/02/05 03:56:23;;;;;;;23.90;4.45;;;9.50;99.90;;;;;;6269305;28;20053;-78
2024/02/05 03:59:25;;;;;;;30.65;5.03;;;9.40;99.90;;;;;;6258753;28;20052;-76
2024/02/05 04:02:27;;;;;;;20.27;4.50;;;9.50;99.90;;;;;;6245572;28;20385;-77
2024/02/05 04:05:31;;;;;;;19.42;4.53;;;9.50;99.90;;;;;;6263683;28;20131;-77
2024/02/05 04:08:33;;;;;;;23.17;4.53;;;9.50;99.90;;;;;;6269085;28;20052;-77
2024/02/05 04:11:34;;;;;;;20.45;4.28;;;9.50;99.90;;;;;;6245256;28;20417;-78
2024/02/05 04:14:36;;;;;;;24.77;4.28;;;9.50;99.90;;;;;;6259422;28;20563;-77
2024/02/05 04:17:38;;;;;;;24.13;4.65;;;9.40;99.90;;;;;;6249596;28;20053;-77
2024/02/05 04:20:39;;;;;;;27.58;4.13;;;9.50;99.90;;;;;;6242477;28;20092;-78
2024/02/05 04:23:41;;;;;;;17.63;4.25;;;9.50;99.90;;;;;;6268850;28;20412;-77
2024/02/05 04:26:42;;;;;;;24.80;4.28;;;9.50;99.90;;;;;;6243722;28;20420;-77
2024/02/05 04:29:44;;;;;;;24.88;4.18;;;9.50;99.90;;;;;;6264793;28;20060;-77
2024/02/05 04:32:46;;;;;;;21.50;4.70;;;9.40;99.90;;;;;;6245205;28;20053;-76
2024/02/05 04:35:48;;;;;;;19.48;4.15;;;9.40;99.90;;;;;;6257684;28;20064;-77
2024/02/05 04:38:49;;;;;;;19.40;4.13;;;9.30;99.90;;;;;;6248108;28;20060;-77
2024/02/05 04:41:51;;;;;;;22.77;4.50;;;9.30;99.90;;;;;;6268241;28;20652;-77
2024/02/05 04:44:52;;;;;;;25.63;4.35;;;9.30;99.90;;;;;;6244415;22;20037;-80
2024/02/05 04:47:54;;;;;;;25.50;4.18;;;9.30;99.90;;;;;;6241145;28;20057;-80
2024/02/05 04:50:56;;;;;;;15.18;3.80;;;9.30;99.90;;;;;;6219353;28;20157;-80
2024/02/05 04:53:57;;;;;;;23.50;4.38;;;9.20;99.90;;;;;;6242525;28;20489;-79
2024/02/05 04:56:59;;;;;;;16.65;3.42;;;9.20;99.90;;;;;;6218788;28;20072;-79
2024/02/05 05:00:01;;;;;;;20.90;4.78;;;9.20;99.90;;;;;;6239221;28;20114;-81
2024/02/05 05:03:02;;;;;;;20.85;3.83;;;9.20;99.90;;;;;;6239632;28;20053;-81
2024/02/05 05:06:04;;;;;;;18.20;3.40;;;9.20;99.90;;;;;;6220026;28;20060;-81
2024/02/05 05:09:06;;;;;;;29.67;4.53;;;9.20;99.90;;;;;;6241973;28;20049;-81
2024/02/05 05:12:08;;;;;;;21.63;3.90;;;9.30;99.90;;;;;;6232377;28;20053;-82
2024/02/05 05:15:10;;;;;;;18.92;3.60;;;9.30;99.90;;;;;;6217064;28;20046;-80
2024/02/05 05:18:12;;;;;;;19.55;3.95;;;9.20;99.90;;;;;;6243189;28;20410;-80
2024/02/05 05:21:14;;;;;;;24.25;4.25;;;9.20;99.90;;;;;;6223525;28;20175;-80
2024/02/05 05:24:16;;;;;;;22.83;3.80;;;9.20;99.90;;;;;;6219724;28;20057;-80
2024/02/05 05:27:18;;;;;;;23.48;4.03;;;9.10;99.90;;;;;;6243560;28;20468;-80
2024/02/05 05:30:20;;;;;;;18.33;4.05;;;9.00;99.90;;;;;;6220787;28;20133;-80
2024/02/05 05:33:21;;;;;;;26.67;4.80;;;9.00;99.90;;;;;;6244806;28;20497;-79
2024/02/05 05:36:23;;;;;;;24.35;4.00;;;9.00;99.90;;;;;;6222077;28;20061;-80
2024/02/05 05:39:25;;;;;;;22.88;4.30;;;9.00;99.90;;;;;;6243432;28;20060;-80
2024/02/05 05:42:26;;;;;;;20.35;3.75;;;9.00;99.90;;;;;;6239222;28;20493;-81
2024/02/05 05:45:29;;;;;;;18.45;3.92;;;9.00;99.90;;;;;;6230705;28;20497;-80
2024/02/05 05:48:31;;;;;;;21.15;4.53;;;9.00;99.90;;;;;;6220742;28;20116;-79
2024/02/05 05:51:33;;;;;;;27.85;4.43;;;9.00;99.90;;;;;;6236081;28;20045;-81
2024/02/05 05:54:34;;;;;;;18.67;3.63;;;8.90;99.90;;;;;;6224547;28;20101;-81
2024/02/05 05:57:36;;;;;;;18.92;3.92;;;9.00;99.90;;;;;;6245196;28;20092;-80
2024/02/05 06:00:38;;;;;;;15.55;3.80;;;9.00;99.90;;;;;;6236847;28;20064;-80
2024/02/05 06:03:43;;;;;;;20.15;4.45;;;9.00;99.90;;;;;;6239169;28;20123;-80
2024/02/05 06:06:45;;;;;;;22.38;4.65;;;9.00;99.90;;;;;;6248268;28;20536;-80
2024/02/05 06:09:47;;;;;;;21.38;4.32;;;9.10;99.90;;;;;;6235111;28;20596;-80
2024/02/05 06:12:49;;;;;;;23.50;4.32;;;9.10;99.90;;;;;;6224895;28;20053;-80
2024/02/05 06:15:50;;;;;;;20.30;3.97;;;9.10;99.90;;;;;;6246218;28;20053;-80
2024/02/05 06:18:52;;;;;;;18.95;4.28;;;9.10;99.90;;;;;;6248112;28;20481;-80
2024/02/05 06:21:54;;;;;;;23.83;4.57;;;9.10;99.90;;;;;;6240196;28;20057;-81
2024/02/05 06:24:55;;;;;;;25.23;4.57;;;9.10;99.90;;;;;;6222238;28;20050;-80
2024/02/05 06:27:58;;;;;;;20.17;4.07;;;9.10;99.90;;;;;;6234875;28;20077;-81
2024/02/05 06:30:59;;;;;;;15.50;4.15;;;9.10;99.90;;;;;;6240602;28;20050;-81
2024/02/05 06:34:01;;;;;;;18.40;3.92;;;9.10;99.90;;;;;;6228183;28;20057;-81
2024/02/05 06:37:07;;;;;;;18.90;4.15;;;9.10;99.90;;;;;;6234304;28;20054;-82
2024/02/05 06:40:09;;;;;;;16.73;3.95;;;9.10;99.90;;;;;;6246617;28;20489;-83
2024/02/05 06:43:11;;;;;;;17.38;3.72;;;9.10;99.90;;;;;;6237724;28;20041;-82
2024/02/05 06:46:13;;;;;;;28.88;4.20;;;9.10;99.90;;;;;;6245499;28;20057;-81
2024/02/05 06:49:15;;;;;;;21.00;4.35;;;9.10;99.90;;;;;;6229321;28;20095;-81
2024/02/05 06:52:18;;;;;;;19.23;3.95;;;9.10;99.90;;;;;;6222808;28;20050;-79
2024/02/05 06:55:20;;;;;;;21.42;4.10;;;9.10;99.90;;;;;;6246352;28;20496;-81
2024/02/05 06:58:22;;;;;;;16.33;4.38;;;9.10;99.90;;;;;;6226198;28;20053;-81
2024/02/05 07:01:25;;;;;;;30.73;4.70;;;9.10;99.90;;;;;;6220355;28;20057;-81
2024/02/05 07:04:27;;;;;;;20.55;4.20;;;9.10;99.90;;;;;;6247085;28;20054;-82
2024/02/05 07:07:29;;;;;;;20.20;4.10;;;9.10;99.90;;;;;;6222767;28;20057;-79
2024/02/05 07:10:31;;;;;;;19.88;4.07;;;9.20;99.90;;;;;;6246117;28;20065;-81
2024/02/05 07:13:34;;;;;;;16.25;3.80;;;9.10;99.90;;;;;;6228646;28;20049;-80
2024/02/05 07:16:35;;;;;;;22.90;4.25;;;9.10;99.90;;;;;;6222360;28;20062;-80
2024/02/05 07:19:37;;;;;;;22.27;4.93;;;9.10;99.90;;;;;;6246036;28;20045;-80
2024/02/05 07:22:39;;;;;;;20.23;5.13;;;9.10;99.90;;;;;;6221378;28;20050;-81
2024/02/05 07:25:40;;;;;;;17.25;3.72;;;9.10;99.90;;;;;;6246196;28;20061;-80
2024/02/05 07:28:44;;;;;;;24.95;4.45;;;9.20;99.90;;;;;;6226464;28;20569;-79
2024/02/05 07:31:46;;;;;;;17.85;4.00;;;9.10;99.90;;;;;;6247121;28;20128;-79
2024/02/05 07:34:48;;;;;;;18.35;4.25;;;9.10;99.90;;;;;;6223491;28;20060;-80
2024/02/05 07:37:50;;;;;;;18.83;4.00;;;9.00;99.90;;;;;;6248300;28;20053;-80
2024/02/05 07:40:51;;;;;;;18.50;4.70;;;9.00;99.90;;;;;;6223988;28;20131;-80
2024/02/05 07:43:53;;;;;;;19.30;4.20;;;8.90;99.90;;;;;;6234962;28;20061;-79
2024/02/05 07:46:55;;;;;;;18.48;4.20;;;8.90;99.90;;;;;;6247722;28;20060;-79
2024/02/05 07:49:56;;;;;;;20.55;3.97;;;8.90;99.90;;;;;;6221821;28;20057;-80
2024/02/05 07:52:58;;;;;;;19.42;4.35;;;8.90;99.90;;;;;;6245399;28;20076;-80
2024/02/05 07:56:00;;;;;;;26.05;4.63;;;8.90;99.90;;;;;;6221161;28;20068;-79
2024/02/05 07:59:03;;;;;;;17.83;3.95;;;8.90;99.90;;;;;;6224414;28;20050;-80
2024/02/05 08:02:08;;;;;;;20.90;5.03;;;8.90;99.90;;;;;;6243989;28;20405;-79
2024/02/05 08:05:11;;;;;;;23.00;4.38;;;8.90;99.90;;;;;;6219702;28;20062;-81
2024/02/05 08:08:13;;;;;;;17.98;3.70;;;9.00;99.90;;;;;;6244990;28;20363;-80
2024/02/05 08:11:16;;;;;;;24.48;3.97;;;9.10;99.90;;;;;;6219335;28;20061;-78
2024/02/05 08:14:17;;;;;;;18.45;3.92;;;9.00;99.90;;;;;;6226708;28;20180;-80
2024/02/05 08:17:19;;;;;;;20.05;3.83;;;9.00;99.90;;;;;;6244791;28;20281;-80
2024/02/05 08:20:21;;;;;;;18.05;4.25;;;9.10;99.90;;;;;;6221035;28;20327;-80
2024/02/05 08:23:22;;;;;;;17.88;4.35;;;9.10;99.90;;;;;;6244758;28;20080;-79
2024/02/05 08:26:24;;;;;;;22.15;4.55;;;9.10;99.90;;;;;;6221012;28;20057;-80
2024/02/05 08:29:26;;;;;;;24.33;4.47;;;9.10;99.90;;;;;;6215205;28;20179;-85
2024/02/05 08:32:27;;;;;;;19.17;4.53;;;9.10;99.90;;;;;;6226910;28;20049;-89
2024/02/05 08:35:29;;;;;;;20.23;4.18;;;9.30;99.90;;;;;;6248450;28;20049;-91
2024/02/05 08:38:31;;;;;;;20.77;4.15;;;9.30;99.90;;;;;;6226905;28;20058;-87
2024/02/05 08:41:34;;;;;;;29.00;4.32;;;9.30;99.90;;;;;;6245779;28;20499;-86
2024/02/05 08:44:39;;;;;;;24.80;4.50;;;9.40;99.90;;;;;;6229646;28;20513;-83
2024/02/05 08:47:41;;;;;;;26.60;4.18;;;9.60;99.90;;;;;;6240056;28;20501;-84
2024/02/05 08:50:43;;;;;;;190.73;15.25;;;9.60;99.90;;;;;;6223789;28;20580;-86
2024/02/05 08:53:46;;;;;;;23.05;4.95;;;9.70;99.90;;;;;;6221987;28;20049;-86
2024/02/05 08:56:47;;;;;;;34.42;4.78;;;9.70;99.90;;;;;;6250403;28;20053;-85
2024/02/05 08:59:50;;;;;;;25.45;4.22;;;9.70;99.90;;;;;;6224804;28;20046;-86
2024/02/05 09:02:53;;;;;;;20.98;4.40;;;9.70;99.90;;;;;;6247278;28;20049;-89
2024/02/05 09:05:55;;;;;;;23.40;4.25;;;9.80;99.90;;;;;;6222484;28;20042;-84
2024/02/05 09:08:57;;;;;;;15.98;4.40;;;9.70;99.90;;;;;;6245524;28;20045;-89
2024/02/05 09:11:59;;;;;;;23.90;4.63;;;9.90;99.90;;;;;;6231306;28;20056;-88
2024/02/05 09:15:08;;;;;;;18.63;4.25;;;9.90;99.80;;;;;;6229272;28;20516;-84
2024/02/05 09:18:09;;;;;;;20.20;3.90;;;10.00;97.70;;;;;;6252807;28;20060;-84
2024/02/05 09:21:11;;;;;;;18.80;3.90;;;10.20;96.20;;;;;;6246641;28;20056;-86
2024/02/05 09:24:14;;;;;;;18.45;4.05;;;10.30;96.30;;;;;;6226692;28;20054;-87
2024/02/05 09:27:32;;;;;;;20.07;3.60;;;10.40;96.30;;;;;;6258742;28;20048;-82
2024/02/05 09:30:34;;;;;;;13.27;3.20;;;10.70;93.10;;;;;;6237681;28;20160;-85
2024/02/05 09:33:35;;;;;;;15.65;3.20;;;11.00;90.10;;;;;;6246540;28;20056;-87
2024/02/05 09:36:37;;;;;;;24.60;3.95;;;11.30;82.50;;;;;;6227584;28;20046;-88
2024/02/05 09:39:39;;;;;;;13.20;2.90;;;11.70;76.60;;;;;;6255871;28;20053;-86
2024/02/05 09:42:41;;;;;;;18.77;2.63;;;11.90;64.00;;;;;;6230323;28;20054;-87
2024/02/05 09:45:43;;;;;;;17.77;3.08;;;11.90;65.60;;;;;;6250514;28;20061;-86
2024/02/05 09:48:45;;;;;;;20.77;3.40;;;12.10;55.30;;;;;;6228151;28;20046;-87
2024/02/05 09:51:47;;;;;;;15.90;2.85;;;12.10;57.50;;;;;;6260924;28;20058;-86
2024/02/05 09:54:49;;;;;;;19.27;3.55;;;12.20;48.90;;;;;;6247300;28;20050;-86
2024/02/05 09:57:51;;;;;;;10.88;2.80;;;11.90;59.90;;;;;;6230471;28;20056;-83
2024/02/05 10:00:52;;;;;;;19.10;3.25;;;11.70;62.10;;;;;;6252907;28;20416;-85
2024/02/05 10:03:54;;;;;;;11.13;2.88;;;11.80;66.30;;;;;;6227062;28;20049;-87
2024/02/05 10:06:56;;;;;;;19.42;3.65;;;12.00;60.90;;;;;;6230752;28;20057;-91
2024/02/05 10:09:58;;;;;;;21.00;2.78;;;11.80;63.90;;;;;;6253104;28;20117;-91
2024/02/05 10:13:03;;;;;;;12.07;3.38;;;11.60;63.60;;;;;;6253999;28;20042;-89
2024/02/05 10:16:05;;;;;;;18.50;3.38;;;11.60;68.50;;;;;;6275404;28;20504;-83
2024/02/05 10:19:07;;;;;;;17.52;3.67;;;11.60;76.50;;;;;;6244341;28;20084;-81
2024/02/05 10:22:09;;;;;;;21.17;3.50;;;11.50;66.70;;;;;;6219195;28;20427;-83
2024/02/05 10:25:11;;;;;;;15.07;3.20;;;11.50;70.30;;;;;;6220346;28;20057;-82
2024/02/05 10:28:12;;;;;;;14.75;3.40;;;11.50;73.10;;;;;;6225091;28;20088;-80
2024/02/05 10:31:16;;;;;;;16.85;3.72;;;11.80;64.60;;;;;;6243146;28;20053;-79
2024/02/05 10:34:18;;;;;;;13.30;2.70;;;11.70;61.20;;;;;;6220918;28;20050;-82
2024/02/05 10:37:21;;;;;;;19.95;3.40;;;11.70;68.80;;;;;;6220544;28;20050;-82
2024/02/05 10:40:22;;;;;;;14.90;3.10;;;11.70;61.90;;;;;;6246878;28;20115;-85
2024/02/05 10:43:24;;;;;;;19.25;2.92;;;11.60;71.30;;;;;;6237594;28;20489;-86
2024/02/05 10:46:26;;;;;;;16.63;2.70;;;11.60;69.40;;;;;;6227829;28;20049;-89
2024/02/05 10:49:27;;;;;;;18.02;2.95;;;11.60;70.20;;;;;;6227577;28;20064;-88
2024/02/05 10:52:30;;;;;;;12.82;2.83;;;11.50;71.00;;;;;;6249481;28;20058;-85
2024/02/05 10:55:32;;;;;;;14.70;2.40;;;11.50;67.20;;;;;;6225616;28;20062;-89
2024/02/05 10:58:33;;;;;;;13.35;2.20;;;11.80;71.80;;;;;;6239411;28;20452;-85
2024/02/05 11:01:36;;;;;;;13.13;2.65;;;11.90;61.60;;;;;;6224838;28;20423;-84
2024/02/05 11:04:38;;;;;;;10.45;2.15;;;12.00;56.30;;;;;;6239793;28;20056;-86
2024/02/05 11:07:40;;;;;;;8.20;1.90;;;12.10;65.10;;;;;;6239255;28;20139;-88
2024/02/05 11:11:09;;;;;;;8.68;2.05;;;12.30;60.10;;;;;;6225373;28;20160;-91
2024/02/05 11:14:05;;;;;;;9.02;1.50;;;12.50;55.60;;;;;;6234449;28;20049;-85
2024/02/05 11:17:07;;;;;;;10.15;1.67;;;12.80;31.30;;;;;;6225379;28;20058;-86
2024/02/05 11:20:09;;;;;;;5.88;1.40;;;12.70;33.00;;;;;;6248494;28;20053;-87
2024/02/05 11:23:11;;;;;;;8.68;1.27;;;13.40;20.30;;;;;;6225825;28;20105;-88
2024/02/05 11:26:12;;;;;;;5.68;0.88;;;14.10;11.80;;;;;;6246216;28;20076;-87
2024/02/05 11:29:14;;;;;;;3.83;1.30;;;14.50;1.00;;;;;;6231659;28;20424;-86
2024/02/05 11:32:16;;;;;;;3.33;0.70;;;14.50;1.00;;;;;;6224309;28;20058;-86
2024/02/05 11:35:18;;;;;;;3.60;0.98;;;14.30;1.00;;;;;;6246694;28;20049;-89
2024/02/05 11:38:20;;;;;;;3.83;0.80;;;13.90;5.00;;;;;;6225515;28;20065;-86
2024/02/05 11:41:22;;;;;;;4.03;0.75;;;14.10;1.00;;;;;;6248236;28;20112;-85
2024/02/05 11:44:25;;;;;;;3.90;0.60;;;13.90;1.00;;;;;;6244071;28;20061;-91
2024/02/05 11:47:26;;;;;;;2.45;0.55;;;13.40;8.90;;;;;;6228547;28;21068;-86
2024/02/05 11:50:28;;;;;;;1.65;0.57;;;13.30;17.80;;;;;;6252191;28;20089;-88
2024/02/05 11:53:31;;;;;;;2.35;0.68;;;13.00;20.00;;;;;;6247271;28;20065;-86
2024/02/05 11:56:32;;;;;;;1.40;0.60;;;12.90;39.80;;;;;;6228131;28;20058;-88
2024/02/05 11:59:35;;;;;;;4.50;0.80;;;12.90;43.10;;;;;;6262401;28;20045;-88
2024/02/05 12:02:38;;;;;;;3.55;0.85;;;12.70;50.10;;;;;;6251344;28;20060;-85
2024/02/05 12:05:41;;;;;;;3.95;0.80;;;12.70;61.80;;;;;;6233834;28;20117;-89
2024/02/05 12:08:45;;;;;;;4.00;0.70;;;12.70;61.80;;;;;;6253322;28;20081;-88
2024/02/05 12:11:48;;;;;;;3.28;0.90;;;12.80;57.00;;;;;;6233717;28;20188;-84
2024/02/05 12:14:50;;;;;;;3.08;1.00;;;12.70;59.90;;;;;;6257255;28;20053;-89
2024/02/05 12:17:55;;;;;;;5.60;1.05;;;12.60;55.80;;;;;;6235445;28;20127;-90
2024/02/05 12:20:56;;;;;;;3.75;1.08;;;12.70;63.30;;;;;;6259436;28;20145;-83
2024/02/05 12:23:59;;;;;;;1.58;0.77;;;13.10;61.20;;;;;;6234686;28;20050;-94
2024/02/05 12:27:00;;;;;;;6.85;0.90;;;13.10;42.20;;;;;;6262828;28;20037;-93
2024/02/05 12:30:04;;;;;;;3.22;0.85;;;13.00;47.60;;;;;;6241080;28;20049;-88
2024/02/05 12:33:06;;;;;;;4.75;0.70;;;13.80;29.30;;;;;;6262061;28;20064;-91
2024/02/05 12:36:08;;;;;;;2.78;0.70;;;13.90;14.40;;;;;;6232612;28;20061;-89
2024/02/05 12:39:09;;;;;;;1.58;0.60;;;14.60;5.90;;;;;;6261759;28;20053;-90
2024/02/05 12:42:11;;;;;;;2.08;0.70;;;14.80;1.00;;;;;;6237568;28;20050;-88
2024/02/05 12:45:15;;;;;;;2.25;0.80;;;14.20;1.00;;;;;;6243330;28;20061;-89
2024/02/05 12:48:19;;;;;;;1.83;0.60;;;13.80;9.10;;;;;;6259377;28;20053;-91
2024/02/05 12:51:22;;;;;;;5.10;0.68;;;13.60;16.50;;;;;;6233817;28;20084;-91
2024/02/05 12:54:24;;;;;;;1.55;0.70;;;13.10;25.60;;;;;;6264482;28;20049;-89
2024/02/05 12:57:25;;;;;;;2.83;0.80;;;12.80;45.20;;;;;;6237016;28;20072;-90
2024/02/05 13:00:27;;;;;;;2.42;0.75;;;12.70;58.10;;;;;;6256032;28;20045;-88
2024/02/05 13:03:29;;;;;;;2.88;0.82;;;12.60;63.80;;;;;;6261813;28;20477;-90
2024/02/05 13:06:30;;;;;;;2.33;0.80;;;12.50;66.40;;;;;;6253435;28;20067;-87
2024/02/05 13:09:33;;;;;;;3.17;0.80;;;12.50;70.70;;;;;;6235808;28;20053;-91
2024/02/05 13:12:35;;;;;;;2.45;0.77;;;12.60;73.10;;;;;;6252498;28;20042;-88
2024/02/05 13:15:37;;;;;;;2.50;0.80;;;12.70;75.30;;;;;;6223965;28;20069;-86
2024/02/05 13:18:39;;;;;;;2.83;0.82;;;12.50;69.60;;;;;;6254749;28;20138;-89
2024/02/05 13:21:40;;;;;;;3.08;0.77;;;12.50;72.90;;;;;;6227766;28;20398;-89
2024/02/05 13:24:42;;;;;;;3.80;0.90;;;12.60;74.10;;;;;;6254850;28;20072;-89
2024/02/05 13:27:44;;;;;;;3.78;0.88;;;12.60;76.00;;;;;;6230012;28;20049;-88
2024/02/05 13:30:46;;;;;;;2.35;0.88;;;12.50;74.00;;;;;;6256861;28;20054;-90
2024/02/05 13:33:48;;;;;;;3.65;1.10;;;12.40;81.60;;;;;;6237596;28;20072;-88
2024/02/05 13:36:50;;;;;;;2.75;0.80;;;12.30;83.00;;;;;;6261413;28;20060;-88
2024/02/05 13:39:52;;;;;;;17.08;1.48;;;12.20;88.20;;;;;;6234203;28;20045;-91
2024/02/05 13:42:54;;;;;;;3.47;1.00;;;12.10;90.30;;;;;;6259550;28;20066;-89
2024/02/05 13:45:58;;;;;;;5.80;1.10;;;12.10;91.10;;;;;;6233935;28;20062;-90
2024/02/05 13:49:00;;;;;;;2.17;0.80;;;12.10;91.50;;;;;;6249213;28;20050;-89
2024/02/05 13:52:01;;;;;;;3.72;0.85;;;12.10;91.80;;;;;;6221407;28;20057;-89
2024/02/05 13:55:03;;;;;;;2.65;0.98;;;12.00;90.90;;;;;;6245039;28;20049;-90
2024/02/05 13:58:05;;;;;;;3.30;0.80;;;12.10;91.50;;;;;;6243119;28;20193;-87
2024/02/05 14:01:07;;;;;;;3.65;1.00;;;12.10;91.60;;;;;;6229202;28;20050;-89
2024/02/05 14:04:09;;;;;;;4.82;0.90;;;12.00;91.40;;;;;;6227558;28;20066;-87
2024/02/05 14:07:11;;;;;;;4.78;0.90;;;12.00;90.60;;;;;;6258544;28;20117;-87
2024/02/05 14:10:13;;;;;;;3.25;0.80;;;11.90;91.50;;;;;;6228187;28;20221;-84
2024/02/05 14:13:14;;;;;;;1.95;0.75;;;11.90;92.00;;;;;;6241889;28;20416;-92
2024/02/05 14:19:55;;;;;;;3.90;0.70;;;11.80;91.60;;;;;;6264807;28;20057;-86
2024/02/05 14:22:56;;;;;;;1.55;0.70;;;11.80;90.50;;;;;;6238544;28;20064;-89
2024/02/05 14:25:58;;;;;;;2.60;0.70;;;11.90;89.10;;;;;;6238025;28;20065;-91
2024/02/05 14:29:00;;;;;;;2.45;1.00;;;11.90;89.10;;;;;;6250642;28;20057;-88
2024/02/05 14:32:02;;;;;;;2.92;0.70;;;11.90;90.20;;;;;;6233691;28;20061;-87
2024/02/05 14:35:04;;;;;;;3.25;0.93;;;11.90;90.60;;;;;;6259441;28;20068;-86
2024/02/05 14:38:06;;;;;;;2.13;0.80;;;11.70;91.20;;;;;;6253614;28;20053;-83
2024/02/05 14:41:07;;;;;;;2.72;0.90;;;11.70;91.30;;;;;;6251192;28;20054;-84
2024/02/05 14:44:09;;;;;;;3.15;1.08;;;11.70;92.80;;;;;;6246957;28;20420;-83
2024/02/05 14:47:10;;;;;;;3.00;0.90;;;11.60;91.80;;;;;;6226817;28;20060;-87
2024/02/05 14:50:12;;;;;;;3.95;1.02;;;11.70;92.90;;;;;;6225330;28;20046;-84
2024/02/05 14:53:14;;;;;;;2.67;0.80;;;11.60;93.20;;;;;;6253543;28;20053;-91
2024/02/05 14:56:16;;;;;;;2.15;0.82;;;11.60;93.30;;;;;;6260592;28;20408;-86
2024/02/05 14:59:17;;;;;;;3.10;0.90;;;11.50;93.50;;;;;;6255160;28;20251;-89
2024/02/05 15:02:19;;;;;;;2.95;0.98;;;11.60;93.40;;;;;;6258584;28;20072;-87
2024/02/05 15:05:21;;;;;;;3.97;1.00;;;11.50;93.40;;;;;;6248128;28;20050;-89
2024/02/05 15:08:23;;;;;;;3.63;0.90;;;11.50;93.40;;;;;;6252891;28;20065;-89
2024/02/05 15:11:26;;;;;;;2.58;0.75;;;11.50;93.50;;;;;;6229570;28;20141;-84
2024/02/05 15:14:27;;;;;;;4.25;1.00;;;11.50;93.10;;;;;;6239883;28;20596;-86
2024/02/05 15:17:29;;;;;;;4.30;1.15;;;11.50;93.40;;;;;;6232260;28;20053;-85
2024/02/05 15:20:31;;;;;;;35.10;2.30;;;11.50;94.00;;;;;;6246647;28;20064;-86
2024/02/05 15:23:32;;;;;;;6.03;1.25;;;11.60;93.90;;;;;;6223261;28;20050;-85
2024/02/05 15:26:35;;;;;;;3.38;1.20;;;11.70;92.70;;;;;;6245927;28;20061;-87
2024/02/05 15:29:37;;;;;;;3.63;1.50;;;11.70;92.10;;;;;;6219655;28;20057;-85
2024/02/05 15:32:38;;;;;;;3.55;1.30;;;11.60;92.70;;;;;;6223273;28;20058;-85
2024/02/05 15:35:40;;;;;;;3.38;1.30;;;11.60;92.80;;;;;;6241168;28;20136;-85
2024/02/05 15:38:42;;;;;;;5.10;1.40;;;11.60;92.50;;;;;;6245806;28;20049;-84
2024/02/05 15:41:44;;;;;;;4.57;1.55;;;11.60;91.30;;;;;;6224361;28;20179;-86
2024/02/05 15:44:46;;;;;;;5.82;1.40;;;11.60;90.50;;;;;;6243355;28;20176;-84
2024/02/05 15:47:48;;;;;;;6.25;1.48;;;11.60;90.40;;;;;;6262770;28;20045;-94